Time;durP1;ratioP1;P1;durP2;ratioP2;P2;SDS_P1;SDS_P2;PMS_P1;PMS_P2;Temp;Humidity;BMP_temperature;BMP_pressure;BME280_temperature;BME280_humidity;BME280_pressure;Samples;Min_cycle;Max_cycle;Signal;HPM_P1;HPM_P2
2021/03/06 00:01:18;;;;;;;;;;;5.40;50.70;;;;;;5028542;28;19921;-76
2021/03/06 00:03:44;;;;;;;;;;;5.40;50.60;;;;;;5013354;28;19925;-75
2021/03/06 00:06:11;;;;;;;;;;;5.40;50.40;;;;;;5028195;28;19971;-75
2021/03/06 00:08:37;;;;;;;;;;;5.40;49.60;;;;;;5038317;28;19991;-75
2021/03/06 00:11:04;;;;;;;;;;;5.40;49.80;;;;;;5033508;28;19921;-75
2021/03/06 00:13:34;;;;;;;;;;;5.40;49.20;;;;;;5035322;28;19925;-76
2021/03/06 00:16:01;;;;;;;;;;;5.30;49.30;;;;;;5035833;28;20066;-76
2021/03/06 00:18:27;;;;;;;;;;;5.40;49.80;;;;;;5035985;28;19925;-76
2021/03/06 00:20:53;;;;;;;;;;;5.30;49.20;;;;;;5036190;28;19925;-76
2021/03/06 00:23:20;;;;;;;;;;;5.30;49.40;;;;;;5035557;28;19928;-75
2021/03/06 00:25:46;;;;;;;;;;;5.30;49.60;;;;;;5034106;28;19921;-75
2021/03/06 00:28:12;;;;;;;;;;;5.30;49.70;;;;;;5034525;28;19928;-76
2021/03/06 00:30:39;;;;;;;;;;;5.30;49.70;;;;;;5034010;28;19976;-76
2021/03/06 00:33:06;;;;;;;;;;;5.30;49.70;;;;;;5035822;28;19921;-76
2021/03/06 00:35:32;;;;;;;;;;;5.30;49.70;;;;;;5035598;28;19928;-76
2021/03/06 00:38:02;;;;;;;;;;;5.30;49.60;;;;;;5027286;28;19928;-76
2021/03/06 00:40:30;;;;;;;;;;;5.30;49.40;;;;;;5035763;28;19921;-76
2021/03/06 00:42:56;;;;;;;;;;;5.30;49.10;;;;;;5036174;28;20440;-76
2021/03/06 00:45:22;;;;;;;;;;;5.30;49.10;;;;;;5035664;28;19929;-75
2021/03/06 00:47:48;;;;;;;;;;;5.20;49.20;;;;;;5035392;28;19974;-75
2021/03/06 00:50:18;;;;;;;;;;;5.20;48.80;;;;;;5029755;28;19922;-75
2021/03/06 00:52:44;;;;;;;;;;;5.20;48.80;;;;;;5027457;28;19932;-76
2021/03/06 00:55:11;;;;;;;;;;;5.20;48.70;;;;;;5018406;28;19929;-76
2021/03/06 00:57:37;;;;;;;;;;;5.20;48.70;;;;;;5035236;28;20018;-76
2021/03/06 01:00:05;;;;;;;;;;;5.10;48.70;;;;;;5033598;28;19925;-76
2021/03/06 01:02:31;;;;;;;;;;;5.10;48.80;;;;;;5025277;28;19921;-76
2021/03/06 01:04:57;;;;;;;;;;;5.10;48.70;;;;;;5035515;28;19921;-76
2021/03/06 01:07:24;;;;;;;;;;;5.10;48.80;;;;;;5040205;28;19920;-76
2021/03/06 01:09:51;;;;;;;;;;;5.00;48.90;;;;;;5045908;28;19921;-76
2021/03/06 01:12:17;;;;;;;;;;;5.00;48.90;;;;;;5035399;28;20259;-75
2021/03/06 01:14:43;;;;;;;;;;;5.00;48.90;;;;;;5035265;28;19921;-76
2021/03/06 01:17:10;;;;;;;;;;;5.00;48.90;;;;;;5035062;28;19921;-76
2021/03/06 01:19:36;;;;;;;;;;;5.00;49.00;;;;;;5035889;28;20274;-75
2021/03/06 01:22:02;;;;;;;;;;;5.00;49.00;;;;;;5019782;28;19925;-76
2021/03/06 01:24:29;;;;;;;;;;;5.00;48.90;;;;;;5023700;28;19929;-76
2021/03/06 01:26:56;;;;;;;;;;;5.00;48.90;;;;;;5035443;28;20043;-76
2021/03/06 01:29:22;;;;;;;;;;;5.00;48.90;;;;;;5017581;28;19921;-76
2021/03/06 01:31:48;;;;;;;;;;;5.00;48.90;;;;;;5031989;28;19921;-76
2021/03/06 01:34:14;;;;;;;;;;;5.00;49.20;;;;;;5032011;28;19921;-76
2021/03/06 01:36:41;;;;;;;;;;;5.10;49.70;;;;;;5031425;28;19920;-76
2021/03/06 01:39:07;;;;;;;;;;;5.10;50.10;;;;;;5034391;28;19967;-75
2021/03/06 01:41:34;;;;;;;;;;;5.10;50.70;;;;;;5034268;28;20012;-76
2021/03/06 01:44:00;;;;;;;;;;;5.00;51.00;;;;;;5035340;28;19921;-76
2021/03/06 01:46:26;;;;;;;;;;;5.00;51.40;;;;;;5033283;28;19929;-76
2021/03/06 01:48:53;;;;;;;;;;;4.90;51.20;;;;;;5032461;28;19986;-76
2021/03/06 01:51:19;;;;;;;;;;;4.90;51.00;;;;;;5034789;28;19921;-76
2021/03/06 01:53:45;;;;;;;;;;;4.90;51.00;;;;;;5033296;28;19921;-76
2021/03/06 01:56:12;;;;;;;;;;;4.90;51.00;;;;;;5034463;28;20378;-76
2021/03/06 01:58:39;;;;;;;;;;;4.90;51.00;;;;;;5031597;28;19921;-76
2021/03/06 02:01:09;;;;;;;;;;;4.90;51.20;;;;;;5030817;28;19921;-76
2021/03/06 02:03:35;;;;;;;;;;;4.80;51.20;;;;;;5034348;28;20282;-76
2021/03/06 02:06:02;;;;;;;;;;;4.80;51.30;;;;;;5032839;28;19932;-76
2021/03/06 02:08:28;;;;;;;;;;;4.80;51.30;;;;;;5034375;28;19921;-76
2021/03/06 02:10:54;;;;;;;;;;;4.80;51.50;;;;;;5034162;28;19967;-76
2021/03/06 02:13:26;;;;;;;;;;;4.70;51.50;;;;;;5033831;28;19925;-76
2021/03/06 02:16:01;;;;;;;;;;;4.70;51.60;;;;;;5027503;28;19975;-76
2021/03/06 02:18:31;;;;;;;;;;;4.70;51.60;;;;;;5026457;28;19932;-76
2021/03/06 02:20:59;;;;;;;;;;;4.70;52.00;;;;;;5034036;28;19929;-76
2021/03/06 02:23:42;;;;;;;;;;;4.60;52.10;;;;;;5034150;28;20062;-76
2021/03/06 02:26:26;;;;;;;;;;;4.60;52.40;;;;;;5033365;28;19944;-76
2021/03/06 02:28:59;;;;;;;;;;;4.60;52.40;;;;;;5031845;28;19928;-76
2021/03/06 02:31:27;;;;;;;;;;;4.60;52.60;;;;;;5023617;28;20369;-75
2021/03/06 02:33:58;;;;;;;;;;;4.50;52.60;;;;;;5016057;28;19922;-75
2021/03/06 02:36:26;;;;;;;;;;;4.50;52.70;;;;;;5030682;28;19924;-75
2021/03/06 02:38:54;;;;;;;;;;;4.40;52.80;;;;;;5033101;28;19925;-75
2021/03/06 02:41:21;;;;;;;;;;;4.40;52.90;;;;;;5032081;28;20320;-75
2021/03/06 02:43:49;;;;;;;;;;;4.40;53.00;;;;;;5029689;28;19920;-76
2021/03/06 02:46:16;;;;;;;;;;;4.30;53.20;;;;;;5032905;28;19921;-75
2021/03/06 02:48:43;;;;;;;;;;;4.30;53.30;;;;;;5033126;28;19921;-76
2021/03/06 02:51:10;;;;;;;;;;;4.30;53.60;;;;;;5034075;28;19921;-76
2021/03/06 02:53:36;;;;;;;;;;;4.30;53.80;;;;;;5019336;28;19976;-75
2021/03/06 02:56:02;;;;;;;;;;;4.20;53.50;;;;;;5018317;28;20369;-75
2021/03/06 02:58:36;;;;;;;;;;;4.20;53.50;;;;;;5033893;28;19928;-75
2021/03/06 03:01:04;;;;;;;;;;;4.20;53.60;;;;;;5025775;28;19933;-75
2021/03/06 03:03:37;;;;;;;;;;;4.20;53.60;;;;;;5033101;28;19928;-75
2021/03/06 03:06:07;;;;;;;;;;;4.20;53.60;;;;;;5032194;28;20305;-75
2021/03/06 03:08:37;;;;;;;;;;;4.20;53.50;;;;;;5046989;28;19928;-75
2021/03/06 03:11:03;;;;;;;;;;;4.10;53.60;;;;;;5034776;28;20370;-75
2021/03/06 03:13:32;;;;;;;;;;;4.10;53.80;;;;;;5032691;28;19921;-76
2021/03/06 03:16:03;;;;;;;;;;;4.00;53.80;;;;;;5033020;28;20381;-77
2021/03/06 03:18:32;;;;;;;;;;;4.00;54.00;;;;;;5033000;28;20362;-77
2021/03/06 03:20:59;;;;;;;;;;;4.00;54.00;;;;;;5021077;28;20366;-76
2021/03/06 03:23:30;;;;;;;;;;;4.00;54.10;;;;;;5029280;28;20347;-76
2021/03/06 03:25:58;;;;;;;;;;;4.00;54.10;;;;;;5026204;28;20289;-76
2021/03/06 03:28:28;;;;;;;;;;;3.90;54.20;;;;;;5032486;28;19929;-75
2021/03/06 03:30:56;;;;;;;;;;;3.90;54.30;;;;;;5030644;28;19960;-76
2021/03/06 03:33:23;;;;;;;;;;;3.80;54.40;;;;;;5032189;28;19924;-76
2021/03/06 03:35:49;;;;;;;;;;;3.80;54.60;;;;;;5019542;28;19920;-76
2021/03/06 03:38:15;;;;;;;;;;;3.80;54.70;;;;;;5032770;28;19921;-76
2021/03/06 03:40:43;;;;;;;;;;;3.70;54.80;;;;;;5026842;28;20428;-77
2021/03/06 03:43:09;;;;;;;;;;;3.70;54.70;;;;;;5026527;28;19921;-76
2021/03/06 03:45:35;;;;;;;;;;;3.70;54.90;;;;;;5031841;28;19929;-76
2021/03/06 03:48:02;;;;;;;;;;;3.70;54.70;;;;;;5026596;28;19922;-76
2021/03/06 03:50:28;;;;;;;;;;;3.70;54.70;;;;;;5020820;28;19925;-76
2021/03/06 03:52:55;;;;;;;;;;;3.70;54.80;;;;;;5033051;28;19932;-77
2021/03/06 03:55:21;;;;;;;;;;;3.70;54.90;;;;;;5026390;28;19948;-77
2021/03/06 03:57:48;;;;;;;;;;;3.70;54.80;;;;;;5031746;28;19925;-76
2021/03/06 04:00:16;;;;;;;;;;;3.70;54.70;;;;;;5016624;28;19989;-76
2021/03/06 04:02:42;;;;;;;;;;;3.70;54.50;;;;;;5031998;28;19943;-75
2021/03/06 04:05:10;;;;;;;;;;;3.60;54.50;;;;;;5031534;28;19921;-75
2021/03/06 04:07:43;;;;;;;;;;;3.60;54.60;;;;;;5035716;28;19928;-75
2021/03/06 04:10:10;;;;;;;;;;;3.60;54.70;;;;;;5032666;28;19921;-75
2021/03/06 04:12:36;;;;;;;;;;;3.60;54.70;;;;;;5019538;28;20267;-75
2021/03/06 04:15:04;;;;;;;;;;;3.50;54.60;;;;;;5017605;28;19921;-75
2021/03/06 04:17:30;;;;;;;;;;;3.50;54.70;;;;;;5032590;28;19921;-75
2021/03/06 04:19:57;;;;;;;;;;;3.40;54.60;;;;;;5026358;28;19921;-75
2021/03/06 04:22:23;;;;;;;;;;;3.40;54.70;;;;;;5031604;28;19921;-73
2021/03/06 04:24:49;;;;;;;;;;;3.40;54.80;;;;;;5024317;28;19952;-75
2021/03/06 04:27:16;;;;;;;;;;;3.40;54.70;;;;;;5029906;28;19921;-75
2021/03/06 04:29:42;;;;;;;;;;;3.40;54.70;;;;;;5029080;28;19921;-75
2021/03/06 04:32:09;;;;;;;;;;;3.40;54.70;;;;;;5031727;28;19975;-74
2021/03/06 04:34:35;;;;;;;;;;;3.50;54.70;;;;;;5027116;28;19929;-74
2021/03/06 04:37:01;;;;;;;;;;;3.50;54.40;;;;;;5026152;28;19924;-76
2021/03/06 04:39:28;;;;;;;;;;;3.60;54.40;;;;;;5032496;28;19964;-74
2021/03/06 04:41:54;;;;;;;;;;;3.50;54.40;;;;;;5023138;28;19921;-74
2021/03/06 04:44:20;;;;;;;;;;;3.50;54.60;;;;;;5015680;28;20287;-74
2021/03/06 04:46:47;;;;;;;;;;;3.40;54.70;;;;;;5031871;28;20007;-74
2021/03/06 04:49:14;;;;;;;;;;;3.50;54.80;;;;;;5032028;28;20400;-74
2021/03/06 04:51:40;;;;;;;;;;;3.50;54.70;;;;;;5032571;28;19925;-74
2021/03/06 04:54:06;;;;;;;;;;;3.40;54.70;;;;;;5030431;28;19925;-72
2021/03/06 04:56:33;;;;;;;;;;;3.40;54.70;;;;;;5032775;28;19921;-72
2021/03/06 04:58:59;;;;;;;;;;;3.30;54.80;;;;;;5030387;28;19922;-73
2021/03/06 05:01:25;;;;;;;;;;;3.30;54.90;;;;;;5030137;28;20386;-72
2021/03/06 05:03:52;;;;;;;;;;;3.30;54.90;;;;;;5035820;28;19928;-73
2021/03/06 05:06:19;;;;;;;;;;;3.30;55.50;;;;;;5035674;28;19925;-74
2021/03/06 05:08:45;;;;;;;;;;;3.30;54.90;;;;;;5050817;28;19967;-73
2021/03/06 05:11:11;;;;;;;;;;;3.20;54.80;;;;;;5035593;28;20369;-73
2021/03/06 05:13:38;;;;;;;;;;;3.20;54.80;;;;;;5035499;28;19967;-73
2021/03/06 05:16:04;;;;;;;;;;;3.20;54.80;;;;;;5035817;28;19925;-74
2021/03/06 05:18:31;;;;;;;;;;;3.10;54.80;;;;;;5034758;28;19999;-74
2021/03/06 05:20:57;;;;;;;;;;;3.10;54.90;;;;;;5025510;28;19928;-74
2021/03/06 05:23:25;;;;;;;;;;;3.10;55.10;;;;;;5027616;28;19932;-73
2021/03/06 05:25:51;;;;;;;;;;;3.10;55.20;;;;;;5030395;28;19933;-73
2021/03/06 05:28:19;;;;;;;;;;;3.10;55.20;;;;;;5029262;28;20459;-73
2021/03/06 05:30:46;;;;;;;;;;;3.00;55.10;;;;;;5033284;28;20020;-73
2021/03/06 05:33:13;;;;;;;;;;;3.00;55.30;;;;;;5032804;28;19929;-73
2021/03/06 05:35:39;;;;;;;;;;;3.00;55.40;;;;;;5033931;28;20412;-73
2021/03/06 05:38:05;;;;;;;;;;;3.00;55.40;;;;;;5027609;28;19940;-74
2021/03/06 05:40:35;;;;;;;;;;;3.00;55.40;;;;;;5033980;28;19928;-76
2021/03/06 05:43:02;;;;;;;;;;;3.00;55.40;;;;;;5033077;28;20405;-74
2021/03/06 05:45:29;;;;;;;;;;;3.00;55.40;;;;;;5034507;28;20015;-74
2021/03/06 05:47:57;;;;;;;;;;;2.90;55.40;;;;;;5026619;28;19952;-74
2021/03/06 05:50:23;;;;;;;;;;;2.90;55.50;;;;;;5025571;28;19929;-74
2021/03/06 05:52:51;;;;;;;;;;;2.90;55.50;;;;;;5034219;28;19932;-74
2021/03/06 05:55:18;;;;;;;;;;;2.80;55.50;;;;;;5016535;28;19948;-74
2021/03/06 05:57:45;;;;;;;;;;;2.80;55.40;;;;;;5030064;28;19929;-74
2021/03/06 06:00:12;;;;;;;;;;;2.80;55.60;;;;;;5026656;28;19937;-74
2021/03/06 06:02:38;;;;;;;;;;;2.80;55.70;;;;;;5027454;28;19921;-74
2021/03/06 06:05:05;;;;;;;;;;;2.80;55.60;;;;;;5030048;28;20344;-74
2021/03/06 06:07:34;;;;;;;;;;;2.80;55.70;;;;;;5033049;28;19929;-74
2021/03/06 06:10:01;;;;;;;;;;;2.80;55.90;;;;;;5028392;28;19933;-74
2021/03/06 06:12:27;;;;;;;;;;;2.80;55.80;;;;;;5028034;28;19921;-74
2021/03/06 06:14:54;;;;;;;;;;;2.90;55.40;;;;;;5031330;28;19994;-72
2021/03/06 06:17:23;;;;;;;;;;;2.90;55.10;;;;;;5034700;28;19921;-74
2021/03/06 06:19:49;;;;;;;;;;;2.90;55.20;;;;;;5032797;28;19932;-74
2021/03/06 06:22:16;;;;;;;;;;;2.80;55.30;;;;;;5033949;28;19921;-74
2021/03/06 06:24:43;;;;;;;;;;;2.80;55.60;;;;;;5032815;28;19948;-75
2021/03/06 06:27:10;;;;;;;;;;;2.80;55.70;;;;;;5033881;28;19921;-74
2021/03/06 06:29:37;;;;;;;;;;;2.90;55.80;;;;;;5033708;28;20016;-74
2021/03/06 06:32:05;;;;;;;;;;;2.80;55.40;;;;;;5033867;28;19943;-74
2021/03/06 06:34:31;;;;;;;;;;;2.90;55.20;;;;;;5034497;28;19921;-74
2021/03/06 06:36:57;;;;;;;;;;;2.90;55.30;;;;;;5033828;28;19929;-74
2021/03/06 06:39:30;;;;;;;;;;;2.90;55.20;;;;;;5033097;28;20561;-74
2021/03/06 06:41:57;;;;;;;;;;;3.00;55.40;;;;;;5031531;28;19921;-74
2021/03/06 06:44:25;;;;;;;;;;;3.00;55.60;;;;;;5027416;28;19944;-74
2021/03/06 06:46:51;;;;;;;;;;;2.90;55.70;;;;;;5034310;28;19994;-75
2021/03/06 06:49:19;;;;;;;;;;;2.90;55.80;;;;;;5033634;28;19927;-74
2021/03/06 06:51:58;;;;;;;;;;;3.00;55.90;;;;;;5032827;28;20370;-74
2021/03/06 06:54:25;;;;;;;;;;;3.00;55.90;;;;;;5031658;28;19925;-75
2021/03/06 06:57:05;;;;;;;;;;;3.10;56.00;;;;;;5031968;28;19921;-74
2021/03/06 06:59:31;;;;;;;;;;;3.20;55.90;;;;;;5033958;28;19925;-74
2021/03/06 07:01:57;;;;;;;;;;;3.30;55.70;;;;;;5029796;28;20440;-76
2021/03/06 07:04:25;;;;;;;;;;;3.50;55.60;;;;;;5032549;28;19971;-75
2021/03/06 07:06:58;;;;;;;;;;;3.60;55.90;;;;;;5025952;28;20008;-74
2021/03/06 07:09:24;;;;;;;;;;;3.70;55.10;;;;;;5031956;28;19928;-75
2021/03/06 07:11:50;;;;;;;;;;;3.80;54.90;;;;;;5018296;28;20290;-74
2021/03/06 07:14:31;;;;;;;;;;;3.90;54.50;;;;;;5031856;28;19921;-75
2021/03/06 07:16:58;;;;;;;;;;;4.00;54.30;;;;;;5032822;28;19921;-75
2021/03/06 07:19:26;;;;;;;;;;;4.10;53.40;;;;;;5030162;28;19925;-75
2021/03/06 07:21:53;;;;;;;;;;;4.20;52.70;;;;;;5031712;28;19921;-75
2021/03/06 07:24:19;;;;;;;;;;;4.30;51.90;;;;;;5033043;28;19921;-75
2021/03/06 07:26:51;;;;;;;;;;;4.40;51.50;;;;;;5032623;28;19928;-75
2021/03/06 07:29:17;;;;;;;;;;;4.50;51.20;;;;;;5031617;28;20007;-74
2021/03/06 07:31:44;;;;;;;;;;;4.70;50.80;;;;;;5033242;28;19932;-74
2021/03/06 07:34:11;;;;;;;;;;;4.90;50.50;;;;;;5030751;28;19928;-74
2021/03/06 07:36:42;;;;;;;;;;;5.10;49.90;;;;;;5030593;28;19928;-75
2021/03/06 07:39:10;;;;;;;;;;;5.40;49.50;;;;;;5021640;28;20352;-74
2021/03/06 07:41:39;;;;;;;;;;;5.60;48.50;;;;;;5031246;28;19975;-75
2021/03/06 07:44:06;;;;;;;;;;;5.80;47.70;;;;;;5022264;28;20024;-75
2021/03/06 07:46:36;;;;;;;;;;;6.00;47.10;;;;;;5032065;28;19921;-75
2021/03/06 07:49:03;;;;;;;;;;;6.20;47.20;;;;;;5026184;28;19921;-75
2021/03/06 07:51:31;;;;;;;;;;;6.40;46.20;;;;;;5032869;28;19928;-75
2021/03/06 07:53:58;;;;;;;;;;;6.50;45.30;;;;;;5025036;28;19920;-75
2021/03/06 07:56:25;;;;;;;;;;;6.60;44.90;;;;;;5032834;28;19928;-75
2021/03/06 07:58:52;;;;;;;;;;;6.80;44.40;;;;;;5032056;28;19929;-75
2021/03/06 08:01:25;;;;;;;;;;;6.90;44.30;;;;;;5016013;28;19928;-75
2021/03/06 08:03:52;;;;;;;;;;;7.10;44.50;;;;;;5023133;28;19960;-77
2021/03/06 08:06:19;;;;;;;;;;;7.20;44.00;;;;;;5032329;28;19929;-76
2021/03/06 08:09:03;;;;;;;;;;;7.40;43.40;;;;;;5032626;28;19921;-77
2021/03/06 08:11:40;;;;;;;;;;;7.50;42.70;;;;;;5023831;28;19967;-77
2021/03/06 08:14:25;;;;;;;;;;;7.60;42.80;;;;;;5031629;28;19928;-76
2021/03/06 08:16:51;;;;;;;;;;;7.70;42.50;;;;;;5029993;28;19921;-76
2021/03/06 08:19:25;;;;;;;;;;;7.80;42.20;;;;;;5032106;28;19932;-76
2021/03/06 08:21:51;;;;;;;;;;;7.90;42.20;;;;;;5032963;28;19921;-76
2021/03/06 08:24:26;;;;;;;;;;;7.90;41.90;;;;;;5027435;28;19925;-76
2021/03/06 08:27:07;;;;;;;;;;;8.10;42.00;;;;;;5024049;28;19921;-77
2021/03/06 08:29:35;;;;;;;;;;;8.20;41.20;;;;;;5030036;28;20404;-76
2021/03/06 08:32:02;;;;;;;;;;;8.20;40.80;;;;;;5030872;28;20377;-75
2021/03/06 08:34:29;;;;;;;;;;;8.20;41.00;;;;;;5036109;28;19975;-76
2021/03/06 08:37:14;;;;;;;;;;;8.20;40.70;;;;;;5036702;28;20266;-76
2021/03/06 08:39:41;;;;;;;;;;;8.20;41.00;;;;;;5030865;28;20077;-75
2021/03/06 08:42:07;;;;;;;;;;;8.20;40.90;;;;;;5033598;28;19921;-75
2021/03/06 08:44:33;;;;;;;;;;;8.20;40.80;;;;;;5036000;28;19920;-76
2021/03/06 08:47:01;;;;;;;;;;;8.20;40.80;;;;;;5035791;28;20396;-74
2021/03/06 08:49:27;;;;;;;;;;;8.20;40.90;;;;;;5036053;28;20297;-75
2021/03/06 08:51:54;;;;;;;;;;;8.10;40.80;;;;;;5032274;28;19971;-76
2021/03/06 08:54:21;;;;;;;;;;;8.10;41.00;;;;;;5033877;28;19929;-76
2021/03/06 08:56:47;;;;;;;;;;;8.10;41.00;;;;;;5027835;28;19921;-75
2021/03/06 08:59:14;;;;;;;;;;;8.10;41.00;;;;;;5016502;28;19925;-76
2021/03/06 09:01:40;;;;;;;;;;;8.10;41.00;;;;;;5035585;28;20341;-75
2021/03/06 09:04:08;;;;;;;;;;;8.10;41.00;;;;;;5024664;28;19921;-76
2021/03/06 09:06:34;;;;;;;;;;;7.90;41.10;;;;;;5035336;28;19928;-76
2021/03/06 09:09:01;;;;;;;;;;;7.70;41.40;;;;;;5055722;28;19921;-76
2021/03/06 09:11:28;;;;;;;;;;;7.60;41.50;;;;;;5044228;28;19928;-76
2021/03/06 09:13:55;;;;;;;;;;;7.50;42.00;;;;;;5035783;28;19975;-76
2021/03/06 09:16:21;;;;;;;;;;;7.50;42.40;;;;;;5035733;28;19921;-76
2021/03/06 09:18:47;;;;;;;;;;;7.50;42.60;;;;;;5034841;28;19979;-76
2021/03/06 09:21:18;;;;;;;;;;;7.50;42.40;;;;;;5033567;28;20286;-76
2021/03/06 09:23:44;;;;;;;;;;;7.60;42.40;;;;;;5017592;28;20274;-76
2021/03/06 09:26:13;;;;;;;;;;;7.70;42.40;;;;;;5015731;28;19929;-76
2021/03/06 09:28:42;;;;;;;;;;;7.80;42.00;;;;;;5027711;28;19922;-76
2021/03/06 09:31:10;;;;;;;;;;;7.80;41.70;;;;;;5035574;28;19944;-76
2021/03/06 09:33:38;;;;;;;;;;;7.80;41.30;;;;;;5035255;28;19921;-77
2021/03/06 09:36:06;;;;;;;;;;;7.80;40.70;;;;;;5034785;28;19921;-77
2021/03/06 09:38:33;;;;;;;;;;;7.80;40.50;;;;;;5035022;28;19928;-77
2021/03/06 09:41:00;;;;;;;;;;;7.70;39.20;;;;;;5035227;28;19928;-76
2021/03/06 09:43:28;;;;;;;;;;;7.70;39.20;;;;;;5020272;28;20282;-76
2021/03/06 09:45:55;;;;;;;;;;;7.70;39.20;;;;;;5031310;28;19929;-77
2021/03/06 09:48:21;;;;;;;;;;;7.70;38.80;;;;;;5033470;28;19924;-77
2021/03/06 09:50:47;;;;;;;;;;;7.60;38.50;;;;;;5027909;28;19921;-77
2021/03/06 09:53:14;;;;;;;;;;;7.60;38.50;;;;;;5035086;28;19968;-77
2021/03/06 09:55:42;;;;;;;;;;;7.60;38.60;;;;;;5035329;28;20158;-77
2021/03/06 09:58:18;;;;;;;;;;;7.70;39.50;;;;;;5030566;28;19921;-77
2021/03/06 10:00:44;;;;;;;;;;;7.80;39.80;;;;;;5028421;28;20328;-75
2021/03/06 10:03:10;;;;;;;;;;;7.90;39.40;;;;;;5035095;28;19921;-76
2021/03/06 10:05:37;;;;;;;;;;;8.00;39.80;;;;;;5030532;28;19921;-76
2021/03/06 10:08:04;;;;;;;;;;;8.10;39.20;;;;;;5046898;28;19931;-76
2021/03/06 10:10:30;;;;;;;;;;;8.20;39.30;;;;;;5036777;28;19944;-76
2021/03/06 10:12:57;;;;;;;;;;;8.30;38.90;;;;;;5015125;28;19921;-75
2021/03/06 10:15:24;;;;;;;;;;;8.40;38.20;;;;;;5024746;28;19921;-76
2021/03/06 10:17:50;;;;;;;;;;;8.50;37.10;;;;;;5034736;28;20292;-76
2021/03/06 10:20:26;;;;;;;;;;;8.60;37.20;;;;;;5034707;28;20378;-76
2021/03/06 10:22:53;;;;;;;;;;;8.70;37.80;;;;;;5034474;28;20380;-76
2021/03/06 10:25:23;;;;;;;;;;;8.90;37.10;;;;;;5034193;28;19925;-76
2021/03/06 10:27:49;;;;;;;;;;;9.00;37.10;;;;;;5034181;28;19960;-76
2021/03/06 10:30:17;;;;;;;;;;;9.20;36.50;;;;;;5034239;28;19983;-76
2021/03/06 10:32:45;;;;;;;;;;;9.30;36.50;;;;;;5034402;28;19932;-77
2021/03/06 10:35:30;;;;;;;;;;;9.40;37.80;;;;;;5034047;28;20281;-76
2021/03/06 10:37:57;;;;;;;;;;;9.40;37.40;;;;;;5033904;28;19921;-76
2021/03/06 10:40:38;;;;;;;;;;;9.60;37.70;;;;;;5032574;28;19921;-76
2021/03/06 10:43:04;;;;;;;;;;;9.80;36.80;;;;;;5032681;28;19921;-76
2021/03/06 10:45:31;;;;;;;;;;;10.00;34.80;;;;;;5027343;28;19975;-76
2021/03/06 10:47:59;;;;;;;;;;;10.20;34.70;;;;;;5034042;28;19928;-77
2021/03/06 10:50:26;;;;;;;;;;;10.40;34.60;;;;;;5033824;28;19921;-76
2021/03/06 10:52:52;;;;;;;;;;;10.60;34.30;;;;;;5017865;28;20325;-76
2021/03/06 10:55:33;;;;;;;;;;;11.00;34.00;;;;;;5014077;28;19921;-76
2021/03/06 10:57:59;;;;;;;;;;;11.20;33.70;;;;;;5030162;28;20420;-77
2021/03/06 11:00:25;;;;;;;;;;;11.50;33.20;;;;;;5018432;28;19929;-76
2021/03/06 11:02:56;;;;;;;;;;;11.90;33.40;;;;;;5014173;28;19925;-76
2021/03/06 11:05:23;;;;;;;;;;;12.30;32.50;;;;;;5028281;28;19928;-76
2021/03/06 11:07:49;;;;;;;;;;;12.80;32.60;;;;;;5042161;28;19932;-76
2021/03/06 11:10:17;;;;;;;;;;;13.40;31.30;;;;;;5038352;28;19983;-77
2021/03/06 11:12:53;;;;;;;;;;;14.00;30.50;;;;;;5031336;28;19979;-77
2021/03/06 11:15:20;;;;;;;;;;;14.70;29.80;;;;;;5032877;28;19921;-77
2021/03/06 11:17:47;;;;;;;;;;;15.30;29.10;;;;;;5033619;28;19924;-75
2021/03/06 11:20:15;;;;;;;;;;;16.10;28.50;;;;;;5031484;28;20400;-77
2021/03/06 11:22:42;;;;;;;;;;;16.90;28.10;;;;;;5032577;28;19929;-77
2021/03/06 11:25:10;;;;;;;;;;;18.00;27.20;;;;;;5033597;28;19927;-77
2021/03/06 11:27:45;;;;;;;;;;;19.00;26.00;;;;;;5031982;28;19963;-78
2021/03/06 11:30:12;;;;;;;;;;;19.70;24.00;;;;;;5032543;28;19925;-78
2021/03/06 11:32:39;;;;;;;;;;;19.90;24.20;;;;;;5014517;28;19979;-77
2021/03/06 11:35:06;;;;;;;;;;;20.90;23.90;;;;;;5032002;28;19921;-77
2021/03/06 11:37:33;;;;;;;;;;;22.00;22.50;;;;;;5033209;28;20281;-76
2021/03/06 11:39:59;;;;;;;;;;;23.30;21.80;;;;;;5029331;28;19932;-75
2021/03/06 11:42:25;;;;;;;;;;;25.00;21.30;;;;;;5033120;28;19973;-76
2021/03/06 11:44:52;;;;;;;;;;;26.60;19.60;;;;;;5027065;28;19935;-76
2021/03/06 11:47:18;;;;;;;;;;;28.10;18.10;;;;;;5026044;28;19921;-76
2021/03/06 11:49:44;;;;;;;;;;;29.20;17.10;;;;;;5032913;28;20031;-76
2021/03/06 11:52:11;;;;;;;;;;;28.70;16.00;;;;;;5033242;28;19921;-76
2021/03/06 11:54:38;;;;;;;;;;;25.20;17.10;;;;;;5033114;28;19928;-76
2021/03/06 11:57:04;;;;;;;;;;;21.70;18.50;;;;;;5033022;28;19921;-75
2021/03/06 11:59:31;;;;;;;;;;;19.10;19.90;;;;;;5031032;28;19921;-76
2021/03/06 12:01:57;;;;;;;;;;;17.00;21.30;;;;;;5033017;28;19967;-76
2021/03/06 12:04:23;;;;;;;;;;;15.50;23.10;;;;;;5033003;28;19920;-76
2021/03/06 12:06:50;;;;;;;;;;;14.40;24.20;;;;;;5033854;28;19921;-77
2021/03/06 12:09:16;;;;;;;;;;;13.50;25.30;;;;;;5052916;28;20270;-77
2021/03/06 12:11:43;;;;;;;;;;;12.80;25.80;;;;;;5052963;28;19927;-77
2021/03/06 12:14:09;;;;;;;;;;;12.20;26.50;;;;;;5050891;28;19921;-77
2021/03/06 12:16:36;;;;;;;;;;;11.80;27.20;;;;;;5033075;28;20258;-77
2021/03/06 12:19:03;;;;;;;;;;;11.50;27.40;;;;;;5032809;28;19921;-76
2021/03/06 12:21:29;;;;;;;;;;;11.30;27.70;;;;;;5032810;28;19921;-76
2021/03/06 12:23:56;;;;;;;;;;;11.30;27.90;;;;;;5032891;28;19921;-77
2021/03/06 12:26:22;;;;;;;;;;;11.30;27.70;;;;;;5031185;28;19921;-77
2021/03/06 12:28:49;;;;;;;;;;;11.20;27.70;;;;;;5032685;28;19928;-77
2021/03/06 12:31:15;;;;;;;;;;;11.20;27.60;;;;;;5032701;28;19921;-77
2021/03/06 12:33:42;;;;;;;;;;;11.20;27.60;;;;;;5032815;28;19921;-77
2021/03/06 12:36:08;;;;;;;;;;;11.30;27.20;;;;;;5032751;28;19951;-77
2021/03/06 12:38:35;;;;;;;;;;;11.30;27.30;;;;;;5032550;28;19921;-77
2021/03/06 12:41:01;;;;;;;;;;;11.30;28.20;;;;;;5032578;28;19929;-78
2021/03/06 12:43:27;;;;;;;;;;;11.20;27.90;;;;;;5032665;28;19921;-78
2021/03/06 12:45:55;;;;;;;;;;;11.10;27.90;;;;;;5032496;28;19975;-78
2021/03/06 12:48:21;;;;;;;;;;;11.00;27.90;;;;;;5032630;28;20352;-78
2021/03/06 12:50:47;;;;;;;;;;;11.00;28.10;;;;;;5032625;28;19921;-78
2021/03/06 12:53:14;;;;;;;;;;;11.00;27.90;;;;;;5030977;28;19928;-78
2021/03/06 12:55:40;;;;;;;;;;;11.00;27.80;;;;;;5032697;28;19921;-78
2021/03/06 12:58:06;;;;;;;;;;;10.90;27.70;;;;;;5032435;28;19921;-76
2021/03/06 13:00:34;;;;;;;;;;;10.80;28.10;;;;;;5032322;28;20361;-76
2021/03/06 13:03:01;;;;;;;;;;;10.70;28.10;;;;;;5032288;28;19921;-76
2021/03/06 13:05:27;;;;;;;;;;;10.70;28.40;;;;;;5032498;28;20313;-76
2021/03/06 13:07:53;;;;;;;;;;;10.70;28.50;;;;;;5036934;28;19929;-76
2021/03/06 13:10:20;;;;;;;;;;;10.70;28.10;;;;;;5032201;28;19928;-76
2021/03/06 13:12:46;;;;;;;;;;;10.70;28.10;;;;;;5032360;28;19967;-76
2021/03/06 13:15:13;;;;;;;;;;;10.70;28.30;;;;;;5027914;28;19921;-75
2021/03/06 13:17:39;;;;;;;;;;;10.70;28.10;;;;;;5032808;28;19928;-76
2021/03/06 13:20:07;;;;;;;;;;;10.70;27.90;;;;;;5033814;28;19921;-75
2021/03/06 13:22:34;;;;;;;;;;;10.70;27.80;;;;;;5035598;28;19925;-76
2021/03/06 13:25:01;;;;;;;;;;;10.70;27.70;;;;;;5035597;28;20424;-76
2021/03/06 13:27:27;;;;;;;;;;;10.70;27.70;;;;;;5035273;28;20020;-76
2021/03/06 13:29:54;;;;;;;;;;;10.70;27.80;;;;;;5035278;28;19925;-76
2021/03/06 13:32:20;;;;;;;;;;;10.60;28.10;;;;;;5035421;28;19921;-75
2021/03/06 13:34:46;;;;;;;;;;;10.50;28.30;;;;;;5035125;28;19925;-75
2021/03/06 13:37:14;;;;;;;;;;;10.50;28.20;;;;;;5035234;28;19932;-75
2021/03/06 13:39:41;;;;;;;;;;;10.50;28.20;;;;;;5035283;28;19928;-75
2021/03/06 13:42:07;;;;;;;;;;;10.50;28.20;;;;;;5035586;28;20362;-75
2021/03/06 13:44:33;;;;;;;;;;;10.60;28.20;;;;;;5035209;28;21102;-75
2021/03/06 13:46:59;;;;;;;;;;;10.60;28.10;;;;;;5033324;28;19975;-76
2021/03/06 13:49:26;;;;;;;;;;;10.70;28.00;;;;;;5035291;28;19975;-75
2021/03/06 13:51:52;;;;;;;;;;;10.70;27.80;;;;;;5034618;28;20008;-75
2021/03/06 13:54:19;;;;;;;;;;;10.80;27.80;;;;;;5035036;28;20269;-75
2021/03/06 13:56:45;;;;;;;;;;;10.80;27.60;;;;;;5035181;28;19921;-75
2021/03/06 13:59:12;;;;;;;;;;;10.70;27.30;;;;;;5034741;28;19928;-76
2021/03/06 14:01:38;;;;;;;;;;;10.70;27.10;;;;;;5034958;28;19921;-76
2021/03/06 14:04:05;;;;;;;;;;;10.70;27.40;;;;;;5034678;28;20400;-76
2021/03/06 14:06:31;;;;;;;;;;;10.70;27.70;;;;;;5032658;28;19921;-76
2021/03/06 14:08:57;;;;;;;;;;;10.70;27.60;;;;;;5043724;28;19921;-76
2021/03/06 14:11:25;;;;;;;;;;;10.70;28.10;;;;;;5034412;28;19925;-76
2021/03/06 14:13:51;;;;;;;;;;;10.70;27.80;;;;;;5028239;28;19921;-76
2021/03/06 14:16:17;;;;;;;;;;;10.70;27.70;;;;;;5014905;28;20293;-76
2021/03/06 14:18:44;;;;;;;;;;;10.70;27.20;;;;;;5015788;28;19921;-76
2021/03/06 14:21:10;;;;;;;;;;;10.70;27.20;;;;;;5020027;28;19960;-76
2021/03/06 14:23:36;;;;;;;;;;;10.70;27.30;;;;;;5034451;28;19920;-76
2021/03/06 14:26:03;;;;;;;;;;;10.80;27.10;;;;;;5034569;28;19928;-76
2021/03/06 14:28:31;;;;;;;;;;;10.80;27.00;;;;;;5034432;28;19921;-77